createdAt,value
2024-01-15T00:00:41.599Z,740.00
2024-01-15T00:01:41.552Z,736.00
2024-01-15T00:02:41.601Z,735.00
2024-01-15T00:03:42.377Z,738.00
2024-01-15T00:04:41.701Z,743.00
2024-01-15T00:05:41.779Z,730.00
2024-01-15T00:06:41.921Z,736.00
2024-01-15T00:07:41.838Z,735.00
2024-01-15T00:08:41.870Z,734.00
2024-01-15T00:09:41.985Z,728.00
2024-01-15T00:10:42.013Z,726.00
2024-01-15T00:11:42.014Z,730.00
2024-01-15T00:12:42.142Z,733.00
2024-01-15T00:13:42.078Z,729.00
2024-01-15T00:14:42.057Z,731.00
2024-01-15T00:15:42.086Z,726.00
2024-01-15T00:16:42.052Z,721.00
2024-01-15T00:17:42.102Z,729.00
2024-01-15T00:18:42.201Z,715.00
2024-01-15T00:19:42.153Z,720.00
2024-01-15T00:20:42.083Z,718.00
2024-01-15T00:21:42.110Z,719.00
2024-01-15T00:22:42.081Z,718.00
2024-01-15T00:23:42.133Z,717.00
2024-01-15T00:24:42.254Z,698.00
2024-01-15T00:25:42.269Z,696.00
2024-01-15T00:26:42.270Z,698.00
2024-01-15T00:27:42.379Z,699.00
2024-01-15T00:28:42.342Z,695.00
2024-01-15T00:29:42.379Z,702.00
2024-01-15T00:30:42.483Z,702.00
2024-01-15T00:31:42.600Z,697.00
2024-01-15T00:32:42.578Z,699.00
2024-01-15T00:33:42.768Z,693.00
2024-01-15T00:34:42.714Z,696.00
2024-01-15T00:35:42.616Z,701.00
2024-01-15T00:36:42.663Z,691.00
2024-01-15T00:37:42.713Z,697.00
2024-01-15T00:38:42.757Z,695.00
2024-01-15T00:39:42.868Z,703.00
2024-01-15T00:40:42.925Z,695.00
2024-01-15T00:41:43.719Z,699.00
2024-01-15T00:42:43.078Z,689.00
2024-01-15T00:43:43.096Z,691.00
2024-01-15T00:44:43.167Z,684.00
2024-01-15T00:45:43.263Z,684.00
2024-01-15T00:46:43.308Z,685.00
2024-01-15T00:47:43.493Z,696.00
2024-01-15T00:48:43.532Z,688.00
2024-01-15T00:49:43.562Z,690.00
2024-01-15T00:50:43.592Z,683.00
2024-01-15T00:51:43.789Z,680.00
2024-01-15T00:52:43.721Z,680.00
2024-01-15T00:53:43.794Z,677.00
2024-01-15T00:54:43.912Z,686.00
2024-01-15T00:55:43.909Z,686.00
2024-01-15T00:56:44.015Z,684.00
2024-01-15T00:57:44.112Z,683.00
2024-01-15T00:58:44.130Z,683.00
2024-01-15T00:59:44.167Z,678.00
2024-01-15T01:00:44.370Z,674.00
2024-01-15T01:01:44.447Z,685.00
2024-01-15T01:02:44.271Z,677.00
2024-01-15T01:03:44.301Z,669.00
2024-01-15T01:04:44.245Z,675.00
2024-01-15T01:05:44.321Z,668.00
2024-01-15T01:06:44.332Z,667.00
2024-01-15T01:07:44.293Z,662.00
2024-01-15T01:08:44.350Z,662.00
2024-01-15T01:09:44.469Z,664.00
2024-01-15T01:10:44.360Z,672.00
2024-01-15T01:11:44.397Z,673.00
2024-01-15T01:12:44.554Z,680.00
2024-01-15T01:13:44.487Z,665.00
2024-01-15T01:14:44.545Z,668.00
2024-01-15T01:15:44.711Z,671.00
2024-01-15T01:16:44.688Z,666.00
2024-01-15T01:17:44.830Z,663.00
2024-01-15T01:18:44.946Z,661.00
2024-01-15T01:19:45.014Z,664.00
2024-01-15T01:20:44.960Z,661.00
2024-01-15T01:21:45.158Z,666.00
2024-01-15T01:22:45.045Z,668.00
2024-01-15T01:23:45.066Z,664.00
2024-01-15T01:24:45.156Z,665.00
2024-01-15T01:25:45.080Z,668.00
2024-01-15T01:26:45.078Z,661.00
2024-01-15T01:27:45.228Z,663.00
2024-01-15T01:28:45.089Z,670.00
2024-01-15T01:29:45.097Z,668.00
2024-01-15T01:30:45.278Z,666.00
2024-01-15T01:31:45.301Z,670.00
2024-01-15T01:32:45.170Z,671.00
2024-01-15T01:33:45.261Z,666.00
2024-01-15T01:34:45.207Z,674.00
2024-01-15T01:35:45.166Z,664.00
2024-01-15T01:36:45.302Z,669.00
2024-01-15T01:37:45.213Z,664.00
2024-01-15T01:38:45.194Z,668.00
2024-01-15T01:39:45.265Z,665.00
2024-01-15T01:40:45.213Z,671.00
2024-01-15T01:41:45.201Z,668.00
2024-01-15T01:42:45.333Z,665.00
2024-01-15T01:43:45.261Z,668.00
2024-01-15T01:44:45.262Z,663.00
2024-01-15T01:45:45.311Z,662.00
2024-01-15T01:46:45.230Z,668.00
2024-01-15T01:47:45.319Z,673.00
2024-01-15T01:48:45.298Z,665.00
2024-01-15T01:49:45.358Z,678.00
2024-01-15T01:50:45.332Z,663.00
2024-01-15T01:51:45.357Z,662.00
2024-01-15T01:52:45.305Z,665.00
2024-01-15T01:53:46.241Z,670.00
2024-01-15T01:54:45.372Z,664.00
2024-01-15T01:55:45.345Z,665.00
2024-01-15T01:56:45.349Z,662.00
2024-01-15T01:57:45.441Z,661.00
2024-01-15T01:58:45.395Z,658.00
2024-01-15T01:59:45.381Z,663.00
2024-01-15T02:00:45.491Z,664.00
2024-01-15T02:01:45.444Z,664.00
2024-01-15T02:02:45.381Z,664.00
2024-01-15T02:03:45.495Z,664.00
2024-01-15T02:04:45.484Z,662.00
2024-01-15T02:05:45.483Z,663.00
2024-01-15T02:06:45.550Z,662.00
2024-01-15T02:07:45.442Z,663.00
2024-01-15T02:08:45.420Z,665.00
2024-01-15T02:09:45.568Z,665.00
2024-01-15T02:10:45.502Z,665.00
2024-01-15T02:11:45.560Z,661.00
2024-01-15T02:12:45.640Z,664.00
2024-01-15T02:13:45.569Z,665.00
2024-01-15T02:14:45.539Z,667.00
2024-01-15T02:15:45.657Z,663.00
2024-01-15T02:16:45.606Z,666.00
2024-01-15T02:17:45.625Z,666.00
2024-01-15T02:18:45.840Z,663.00
2024-01-15T02:19:45.752Z,664.00
2024-01-15T02:20:45.870Z,663.00
2024-01-15T02:21:45.861Z,664.00
2024-01-15T02:22:45.835Z,662.00
2024-01-15T02:23:45.846Z,661.00
2024-01-15T02:24:45.938Z,664.00
2024-01-15T02:25:46.153Z,664.00
2024-01-15T02:26:45.975Z,660.00
2024-01-15T02:27:46.060Z,665.00
2024-01-15T02:28:46.043Z,660.00
2024-01-15T02:29:46.085Z,661.00
2024-01-15T02:30:46.476Z,663.00
2024-01-15T02:31:46.448Z,660.00
2024-01-15T02:32:46.300Z,665.00
2024-01-15T02:33:46.330Z,665.00
2024-01-15T02:34:46.403Z,664.00
2024-01-15T02:35:46.292Z,663.00
2024-01-15T02:36:46.416Z,661.00
2024-01-15T02:37:46.384Z,662.00
2024-01-15T02:38:46.412Z,665.00
2024-01-15T02:39:46.478Z,666.00
2024-01-15T02:40:46.508Z,666.00
2024-01-15T02:41:46.509Z,662.00
2024-01-15T02:42:46.607Z,660.00
2024-01-15T02:43:46.583Z,660.00
2024-01-15T02:44:46.614Z,662.00
2024-01-15T02:45:46.697Z,665.00
2024-01-15T02:46:46.712Z,661.00
2024-01-15T02:47:46.744Z,660.00
2024-01-15T02:48:46.878Z,660.00
2024-01-15T02:49:46.863Z,661.00
2024-01-15T02:50:46.848Z,663.00
2024-01-15T02:51:46.967Z,664.00
2024-01-15T02:52:46.943Z,663.00
2024-01-15T02:53:47.024Z,662.00
2024-01-15T02:54:47.055Z,665.00
2024-01-15T02:55:47.047Z,663.00
2024-01-15T02:56:47.137Z,663.00
2024-01-15T02:57:47.161Z,665.00
2024-01-15T02:58:47.184Z,662.00
2024-01-15T02:59:47.234Z,673.00
2024-01-15T03:00:47.313Z,665.00
2024-01-15T03:01:47.377Z,664.00
2024-01-15T03:02:48.859Z,664.00
2024-01-15T03:03:47.535Z,664.00
2024-01-15T03:04:47.424Z,664.00
2024-01-15T03:05:47.494Z,662.00
2024-01-15T03:06:47.553Z,662.00
2024-01-15T03:07:47.543Z,664.00
2024-01-15T03:08:47.582Z,669.00
2024-01-15T03:09:47.746Z,672.00
2024-01-15T03:10:47.629Z,670.00
2024-01-15T03:11:47.676Z,675.00
2024-01-15T03:12:47.821Z,665.00
2024-01-15T03:13:47.761Z,677.00
2024-01-15T03:14:47.789Z,672.00
2024-01-15T03:15:47.815Z,678.00
2024-01-15T03:16:47.829Z,666.00
2024-01-15T03:17:48.000Z,669.00
2024-01-15T03:18:47.987Z,671.00
2024-01-15T03:19:48.031Z,664.00
2024-01-15T03:20:47.970Z,664.00
2024-01-15T03:21:48.061Z,665.00
2024-01-15T03:22:48.029Z,667.00
2024-01-15T03:23:48.052Z,665.00
2024-01-15T03:24:48.234Z,665.00
2024-01-15T03:25:48.129Z,661.00
2024-01-15T03:26:48.140Z,663.00
2024-01-15T03:27:48.200Z,665.00
2024-01-15T03:28:48.197Z,661.00
2024-01-15T03:29:48.239Z,661.00
2024-01-15T03:30:48.383Z,664.00
2024-01-15T03:31:48.469Z,662.00
2024-01-15T03:32:48.458Z,658.00
2024-01-15T03:33:48.508Z,660.00
2024-01-15T03:34:48.642Z,658.00
2024-01-15T03:35:48.416Z,660.00
2024-01-15T03:36:48.578Z,662.00
2024-01-15T03:37:48.465Z,664.00
2024-01-15T03:38:48.565Z,661.00
2024-01-15T03:39:48.769Z,663.00
2024-01-15T03:40:48.799Z,659.00
2024-01-15T03:41:48.713Z,663.00
2024-01-15T03:42:48.918Z,661.00
2024-01-15T03:43:48.859Z,657.00
2024-01-15T03:44:48.822Z,662.00
2024-01-15T03:45:48.934Z,660.00
2024-01-15T03:46:48.920Z,658.00
2024-01-15T03:47:49.012Z,660.00
2024-01-15T03:48:49.104Z,662.00
2024-01-15T03:49:49.156Z,660.00
2024-01-15T03:50:49.037Z,656.00
2024-01-15T03:51:49.231Z,655.00
2024-01-15T03:52:49.098Z,657.00
2024-01-15T03:53:49.117Z,658.00
2024-01-15T03:54:49.211Z,657.00
2024-01-15T03:55:49.276Z,652.00
2024-01-15T03:56:49.237Z,650.00
2024-01-15T03:57:49.312Z,653.00
2024-01-15T03:58:49.283Z,658.00
2024-01-15T03:59:49.313Z,653.00
2024-01-15T04:00:49.497Z,655.00
2024-01-15T04:02:49.468Z,656.00
2024-01-15T04:03:49.573Z,652.00
2024-01-15T04:04:49.564Z,652.00
2024-01-15T04:05:49.515Z,652.00
2024-01-15T04:06:49.701Z,651.00
2024-01-15T04:07:49.646Z,650.00
2024-01-15T04:08:49.674Z,652.00
2024-01-15T04:09:49.981Z,649.00
2024-01-15T04:10:49.843Z,646.00
2024-01-15T04:11:49.953Z,650.00
2024-01-15T04:12:50.043Z,650.00
2024-01-15T04:13:50.037Z,645.00
2024-01-15T04:14:49.998Z,645.00
2024-01-15T04:15:50.180Z,651.00
2024-01-15T04:16:50.067Z,645.00
2024-01-15T04:17:50.130Z,649.00
2024-01-15T04:18:50.176Z,649.00
2024-01-15T04:19:50.309Z,644.00
2024-01-15T04:20:50.219Z,644.00
2024-01-15T04:21:57.439Z,600.00
2024-01-15T04:22:57.400Z,600.00
2024-01-15T04:23:57.383Z,600.00
2024-01-15T04:24:57.504Z,600.00
2024-01-15T04:25:57.414Z,600.00
2024-01-15T04:26:57.439Z,606.00
2024-01-15T04:27:57.417Z,602.00
2024-01-15T04:28:57.402Z,603.00
2024-01-15T04:29:57.400Z,605.00
2024-01-15T04:31:04.651Z,600.00
2024-01-15T04:32:04.586Z,600.00
2024-01-15T04:33:04.679Z,600.00
2024-01-15T04:34:04.641Z,600.00
2024-01-15T04:35:04.588Z,600.00
2024-01-15T04:36:04.609Z,603.00
2024-01-15T04:37:04.563Z,601.00
2024-01-15T04:38:04.576Z,605.00
2024-01-15T04:39:04.572Z,601.00
2024-01-15T04:40:04.604Z,602.00
2024-01-15T04:41:04.608Z,603.00
2024-01-15T04:42:04.605Z,606.00
2024-01-15T04:43:04.616Z,600.00
2024-01-15T04:44:04.620Z,602.00
2024-01-15T04:45:04.636Z,600.00
2024-01-15T04:46:04.596Z,601.00
2024-01-15T04:47:04.657Z,601.00
2024-01-15T04:48:04.654Z,600.00
2024-01-15T04:49:04.708Z,604.00
2024-01-15T04:50:04.697Z,605.00
2024-01-15T04:51:04.626Z,604.00
2024-01-15T04:52:04.638Z,604.00
2024-01-15T04:53:04.623Z,609.00
2024-01-15T04:54:04.608Z,608.00
2024-01-15T04:55:04.626Z,606.00
2024-01-15T04:56:04.621Z,609.00
2024-01-15T04:57:04.621Z,608.00
2024-01-15T04:58:05.223Z,607.00
2024-01-15T04:59:04.631Z,609.00
2024-01-15T05:00:04.630Z,606.00
2024-01-15T05:01:04.727Z,611.00
2024-01-15T05:02:04.604Z,607.00
2024-01-15T05:03:04.668Z,605.00
2024-01-15T05:04:04.661Z,611.00
2024-01-15T05:05:04.626Z,609.00
2024-01-15T05:06:04.907Z,609.00
2024-01-15T05:07:04.652Z,611.00
2024-01-15T05:08:04.670Z,614.00
2024-01-15T05:09:04.690Z,607.00
2024-01-15T05:10:04.858Z,615.00
2024-01-15T05:11:04.704Z,609.00
2024-01-15T05:12:04.723Z,612.00
2024-01-15T05:13:04.706Z,611.00
2024-01-15T05:14:04.735Z,611.00
2024-01-15T05:15:04.759Z,606.00
2024-01-15T05:16:04.840Z,600.00
2024-01-15T05:17:06.226Z,605.00
2024-01-15T05:18:04.879Z,605.00
2024-01-15T05:19:04.890Z,609.00
2024-01-15T05:20:04.979Z,607.00
2024-01-15T05:21:04.777Z,608.00
2024-01-15T05:22:04.752Z,610.00
2024-01-15T05:23:04.740Z,606.00
2024-01-15T05:24:04.748Z,604.00
2024-01-15T05:25:04.771Z,609.00
2024-01-15T05:26:04.764Z,610.00
2024-01-15T05:27:04.776Z,609.00
2024-01-15T05:28:04.769Z,609.00
2024-01-15T05:29:04.770Z,608.00
2024-01-15T05:30:04.787Z,609.00
2024-01-15T05:31:04.876Z,606.00
2024-01-15T05:32:04.897Z,606.00
2024-01-15T05:33:04.804Z,610.00
2024-01-15T05:34:04.948Z,606.00
2024-01-15T05:35:04.890Z,608.00
2024-01-15T05:36:04.773Z,605.00
2024-01-15T05:37:04.784Z,609.00
2024-01-15T05:38:04.753Z,605.00
2024-01-15T05:39:04.790Z,601.00
2024-01-15T05:40:04.841Z,606.00
2024-01-15T05:41:05.279Z,607.00
2024-01-15T05:42:04.761Z,604.00
2024-01-15T05:43:04.777Z,608.00
2024-01-15T05:44:04.782Z,605.00
2024-01-15T05:45:04.793Z,606.00
2024-01-15T05:46:04.817Z,604.00
2024-01-15T05:47:04.775Z,605.00
2024-01-15T05:48:04.836Z,609.00
2024-01-15T05:49:04.863Z,610.00
2024-01-15T05:50:04.881Z,607.00
2024-01-15T05:51:04.795Z,605.00
2024-01-15T05:52:04.785Z,613.00
2024-01-15T05:53:04.790Z,610.00
2024-01-15T05:54:04.778Z,609.00
2024-01-15T05:55:04.778Z,605.00
2024-01-15T05:56:04.788Z,609.00
2024-01-15T05:57:04.760Z,609.00
2024-01-15T05:58:04.817Z,609.00
2024-01-15T05:59:04.775Z,609.00
2024-01-15T06:00:04.793Z,605.00
2024-01-15T06:01:27.920Z,607.00
2024-01-15T06:02:04.824Z,607.00
2024-01-15T06:03:04.763Z,609.00
2024-01-15T06:04:04.909Z,609.00
2024-01-15T06:05:04.858Z,612.00
2024-01-15T06:06:05.798Z,617.00
2024-01-15T06:07:04.946Z,615.00
2024-01-15T06:08:04.902Z,616.00
2024-01-15T06:09:04.958Z,611.00
2024-01-15T06:10:04.992Z,614.00
2024-01-15T06:11:05.070Z,618.00
2024-01-15T06:12:05.089Z,614.00
2024-01-15T06:13:05.185Z,615.00
2024-01-15T06:14:05.187Z,611.00
2024-01-15T06:15:05.266Z,610.00
2024-01-15T06:16:06.927Z,609.00
2024-01-15T06:17:05.304Z,608.00
2024-01-15T06:18:05.505Z,613.00
2024-01-15T06:19:05.411Z,607.00
2024-01-15T06:20:05.329Z,611.00
2024-01-15T06:21:05.303Z,607.00
2024-01-15T06:22:05.392Z,608.00
2024-01-15T06:23:05.270Z,607.00
2024-01-15T06:24:05.321Z,610.00
2024-01-15T06:25:05.357Z,609.00
2024-01-15T06:26:05.484Z,610.00
2024-01-15T06:27:05.514Z,611.00
2024-01-15T06:28:05.493Z,609.00
2024-01-15T06:29:05.501Z,607.00
2024-01-15T06:30:05.552Z,611.00
2024-01-15T06:31:05.896Z,610.00
2024-01-15T06:32:05.584Z,608.00
2024-01-15T06:33:05.607Z,606.00
2024-01-15T06:34:05.702Z,602.00
2024-01-15T06:35:05.563Z,602.00
2024-01-15T06:36:05.772Z,602.00
2024-01-15T06:37:05.826Z,610.00
2024-01-15T06:38:05.666Z,602.00
2024-01-15T06:39:05.740Z,603.00
2024-01-15T06:40:05.848Z,605.00
2024-01-15T06:41:05.894Z,606.00
2024-01-15T06:42:06.261Z,606.00
2024-01-15T06:43:05.998Z,602.00
2024-01-15T06:44:06.076Z,605.00
2024-01-15T06:45:06.069Z,607.00
2024-01-15T06:46:28.827Z,608.00
2024-01-15T06:47:06.117Z,609.00
2024-01-15T06:48:06.218Z,610.00
2024-01-15T06:49:06.216Z,612.00
2024-01-15T06:50:06.240Z,613.00
2024-01-15T06:51:06.113Z,617.00
2024-01-15T06:52:06.169Z,622.00
2024-01-15T06:53:06.133Z,621.00
2024-01-15T06:54:06.092Z,622.00
2024-01-15T06:55:06.117Z,626.00
2024-01-15T06:56:06.115Z,626.00
2024-01-15T06:57:06.136Z,637.00
2024-01-15T06:58:06.124Z,640.00
2024-01-15T06:59:06.140Z,646.00
2024-01-15T07:00:06.112Z,645.00
2024-01-15T07:01:06.373Z,652.00
2024-01-15T07:02:06.176Z,659.00
2024-01-15T07:03:06.201Z,663.00
2024-01-15T07:04:06.194Z,668.00
2024-01-15T07:05:06.265Z,685.00
2024-01-15T07:06:06.254Z,709.00
2024-01-15T07:07:06.333Z,726.00
2024-01-15T07:08:06.427Z,729.00
2024-01-15T07:09:06.510Z,748.00
2024-01-15T07:10:06.554Z,749.00
2024-01-15T07:11:06.629Z,800.00
2024-01-15T07:12:06.682Z,823.00
2024-01-15T07:13:06.767Z,839.00
2024-01-15T07:14:06.778Z,873.00
2024-01-15T07:15:06.876Z,879.00
2024-01-15T07:16:07.013Z,884.00
2024-01-15T07:17:06.990Z,904.00
2024-01-15T07:18:07.072Z,925.00
2024-01-15T07:19:07.198Z,944.00
2024-01-15T07:20:07.235Z,945.00
2024-01-15T07:21:07.233Z,965.00
2024-01-15T07:22:07.294Z,990.00
2024-01-15T07:23:07.314Z,999.00
2024-01-15T07:24:07.382Z,1010.00
2024-01-15T07:25:07.573Z,1038.00
2024-01-15T07:26:07.485Z,1050.00
2024-01-15T07:27:07.574Z,1076.00
2024-01-15T07:28:07.576Z,1077.00
2024-01-15T07:29:07.618Z,1087.00
2024-01-15T07:30:07.751Z,1096.00
2024-01-15T07:31:07.754Z,1109.00
2024-01-15T07:32:07.705Z,1116.00
2024-01-15T07:33:07.887Z,1122.00
2024-01-15T07:34:07.812Z,1143.00
2024-01-15T07:35:07.756Z,1142.00
2024-01-15T07:36:07.759Z,1147.00
2024-01-15T07:37:07.868Z,1154.00
2024-01-15T07:38:07.797Z,1161.00
2024-01-15T07:39:07.869Z,1172.00
2024-01-15T07:40:08.135Z,1174.00
2024-01-15T07:41:08.802Z,1183.00
2024-01-15T07:42:08.372Z,1187.00
2024-01-15T07:43:07.883Z,1190.00
2024-01-15T07:44:07.871Z,1197.00
2024-01-15T07:45:07.958Z,1212.00
2024-01-15T07:46:08.026Z,1240.00
2024-01-15T07:47:07.959Z,1245.00
2024-01-15T07:48:08.031Z,1252.00
2024-01-15T07:49:08.047Z,1261.00
2024-01-15T07:50:08.231Z,1269.00
2024-01-15T07:51:08.880Z,1265.00
2024-01-15T07:52:08.114Z,1275.00
2024-01-15T07:53:08.166Z,1271.00
2024-01-15T07:54:08.248Z,1281.00
2024-01-15T07:55:08.303Z,1284.00
2024-01-15T07:56:08.320Z,1285.00
2024-01-15T07:57:08.444Z,1286.00
2024-01-15T07:58:15.712Z,1280.00
2024-01-15T07:59:09.413Z,1281.00
2024-01-15T08:00:08.564Z,1283.00
2024-01-15T08:01:08.573Z,1287.00
2024-01-15T08:02:08.839Z,1288.00
2024-01-15T08:03:08.491Z,1293.00
2024-01-15T08:04:08.502Z,1291.00
2024-01-15T08:05:08.457Z,1287.00
2024-01-15T08:06:08.532Z,1290.00
2024-01-15T08:07:08.888Z,1285.00
2024-01-15T08:08:08.455Z,1286.00
2024-01-15T08:09:08.477Z,1274.00
2024-01-15T08:10:08.482Z,1269.00
2024-01-15T08:11:08.504Z,1261.00
2024-01-15T08:12:08.546Z,1255.00
2024-01-15T08:13:08.521Z,1250.00
2024-01-15T08:14:08.520Z,1235.00
2024-01-15T08:15:08.569Z,1241.00
2024-01-15T08:16:09.364Z,1235.00
2024-01-15T08:17:08.814Z,1236.00
2024-01-15T08:18:08.627Z,1227.00
2024-01-15T08:19:08.792Z,1218.00
2024-01-15T08:20:08.697Z,1223.00
2024-01-15T08:21:08.605Z,1221.00
2024-01-15T08:22:09.340Z,1216.00
2024-01-15T08:23:08.585Z,1216.00
2024-01-15T08:24:08.600Z,1215.00
2024-01-15T08:25:08.632Z,1224.00
2024-01-15T08:26:08.676Z,1220.00
2024-01-15T08:27:09.400Z,1216.00
2024-01-15T08:28:08.750Z,1218.00
2024-01-15T08:29:08.829Z,1222.00
2024-01-15T08:30:08.925Z,1227.00
2024-01-15T08:31:09.109Z,1220.00
2024-01-15T08:32:09.010Z,1235.00
2024-01-15T08:33:14.724Z,1241.00
2024-01-15T08:34:10.160Z,1241.00
2024-01-15T08:35:09.164Z,1243.00
2024-01-15T08:36:09.110Z,1244.00
2024-01-15T08:37:09.846Z,1252.00
2024-01-15T08:38:09.048Z,1268.00
2024-01-15T08:39:09.164Z,1274.00
2024-01-15T08:40:09.047Z,1268.00
2024-01-15T08:41:09.837Z,1253.00
2024-01-15T08:42:09.199Z,1232.00
2024-01-15T08:43:09.051Z,1194.00
2024-01-15T08:44:09.070Z,1171.00
2024-01-15T08:45:09.116Z,1170.00
2024-01-15T08:46:09.798Z,1158.00
2024-01-15T08:47:09.065Z,1137.00
2024-01-15T08:48:09.535Z,1136.00
2024-01-15T08:49:09.165Z,1125.00
2024-01-15T08:50:09.019Z,1095.00
2024-01-15T08:51:09.236Z,1072.00
2024-01-15T08:52:09.078Z,1057.00
2024-01-15T08:53:09.110Z,1023.00
2024-01-15T08:54:09.123Z,1006.00
2024-01-15T08:55:09.062Z,972.00
2024-01-15T08:56:09.103Z,943.00
2024-01-15T08:57:09.126Z,926.00
2024-01-15T08:58:09.244Z,896.00
2024-01-15T08:59:09.187Z,873.00
2024-01-15T09:00:09.264Z,848.00
2024-01-15T09:01:09.327Z,827.00
2024-01-15T09:02:09.308Z,802.00
2024-01-15T09:03:09.370Z,772.00
2024-01-15T09:04:09.460Z,746.00
2024-01-15T09:05:09.539Z,717.00
2024-01-15T09:06:09.541Z,722.00
2024-01-15T09:07:09.501Z,698.00
2024-01-15T09:08:09.543Z,678.00
2024-01-15T09:09:09.543Z,674.00
2024-01-15T09:10:09.550Z,674.00
2024-01-15T09:11:09.517Z,659.00
2024-01-15T09:12:09.573Z,654.00
2024-01-15T09:13:09.558Z,649.00
2024-01-15T09:14:09.544Z,638.00
2024-01-15T09:15:09.624Z,624.00
2024-01-15T09:16:09.632Z,619.00
2024-01-15T09:17:09.572Z,610.00
2024-01-15T09:18:09.709Z,603.00
2024-01-15T09:19:09.794Z,601.00
2024-01-15T09:20:09.788Z,601.00
2024-01-15T09:21:09.786Z,600.00
2024-01-15T09:22:09.768Z,605.00
2024-01-15T09:23:09.913Z,601.00
2024-01-15T09:24:09.954Z,598.00
2024-01-15T09:25:09.929Z,599.00
2024-01-15T09:26:09.986Z,599.00
2024-01-15T09:27:09.968Z,605.00
2024-01-15T09:28:09.962Z,604.00
2024-01-15T09:29:09.966Z,604.00
2024-01-15T09:30:10.130Z,600.00
2024-01-15T09:31:10.111Z,605.00
2024-01-15T09:32:10.009Z,614.00
2024-01-15T09:33:11.950Z,622.00
2024-01-15T09:34:10.042Z,629.00
2024-01-15T09:35:10.052Z,639.00
2024-01-15T09:36:10.060Z,637.00
2024-01-15T09:37:13.022Z,634.00
2024-01-15T09:38:10.934Z,634.00
2024-01-15T09:39:10.153Z,624.00
2024-01-15T09:40:10.082Z,611.00
2024-01-15T09:41:10.255Z,608.00
2024-01-15T09:42:10.199Z,605.00
2024-01-15T09:43:10.414Z,597.00
2024-01-15T09:44:10.119Z,603.00
2024-01-15T09:45:10.175Z,601.00
2024-01-15T09:46:10.124Z,603.00
2024-01-15T09:47:10.116Z,601.00
2024-01-15T09:48:10.221Z,607.00
2024-01-15T09:49:10.243Z,600.00
2024-01-15T09:50:10.242Z,599.00
2024-01-15T09:51:10.176Z,601.00
2024-01-15T09:53:10.119Z,600.00
2024-01-15T09:54:10.145Z,600.00
2024-01-15T09:55:10.136Z,600.00
2024-01-15T09:56:10.147Z,596.00
2024-01-15T09:57:10.144Z,602.00
2024-01-15T09:58:10.372Z,600.00
2024-01-15T09:59:10.104Z,602.00
2024-01-15T10:00:10.127Z,604.00
2024-01-15T10:01:10.169Z,598.00
2024-01-15T10:02:10.109Z,600.00
2024-01-15T10:03:10.142Z,601.00
2024-01-15T10:04:10.141Z,606.00
2024-01-15T10:05:10.146Z,617.00
2024-01-15T10:06:10.210Z,631.00
2024-01-15T10:07:10.108Z,641.00
2024-01-15T10:08:10.098Z,652.00
2024-01-15T10:09:10.143Z,650.00
2024-01-15T10:10:10.193Z,654.00
2024-01-15T10:11:10.123Z,655.00
2024-01-15T10:12:10.099Z,661.00
2024-01-15T10:13:10.375Z,662.00
2024-01-15T10:14:10.114Z,659.00
2024-01-15T10:15:10.148Z,657.00
2024-01-15T10:16:10.172Z,659.00
2024-01-15T10:17:10.128Z,672.00
2024-01-15T10:18:10.281Z,704.00
2024-01-15T10:19:10.495Z,735.00
2024-01-15T10:20:10.350Z,732.00
2024-01-15T10:21:10.383Z,764.00
2024-01-15T10:22:10.413Z,787.00
2024-01-15T10:23:10.475Z,815.00
2024-01-15T10:24:10.561Z,832.00
2024-01-15T10:25:10.520Z,829.00
2024-01-15T10:26:10.546Z,851.00
2024-01-15T10:27:10.603Z,868.00
2024-01-15T10:28:10.554Z,889.00
2024-01-15T10:29:10.591Z,886.00
2024-01-15T10:30:10.687Z,898.00
2024-01-15T10:31:10.730Z,911.00
2024-01-15T10:32:11.001Z,905.00
2024-01-15T10:33:10.873Z,915.00
2024-01-15T10:34:10.917Z,946.00
2024-01-15T10:35:10.892Z,962.00
2024-01-15T10:36:11.062Z,1009.00
2024-01-15T10:37:11.024Z,1032.00
2024-01-15T10:38:10.988Z,1057.00
2024-01-15T10:39:11.026Z,1087.00
2024-01-15T10:40:11.012Z,1108.00
2024-01-15T10:41:11.088Z,1116.00
2024-01-15T10:42:11.196Z,1135.00
2024-01-15T10:43:11.196Z,1148.00
2024-01-15T10:44:11.296Z,1182.00
2024-01-15T10:45:11.374Z,1201.00
2024-01-15T10:46:11.444Z,1218.00
2024-01-15T10:47:11.422Z,1242.00
2024-01-15T10:48:11.658Z,1256.00
2024-01-15T10:49:11.635Z,1280.00
2024-01-15T10:50:11.612Z,1299.00
2024-01-15T10:51:11.959Z,1325.00
2024-01-15T10:52:11.752Z,1335.00
2024-01-15T10:53:11.783Z,1349.00
2024-01-15T10:54:11.955Z,1364.00
2024-01-15T10:55:16.092Z,1390.00
2024-01-15T10:56:12.939Z,1390.00
2024-01-15T10:57:11.906Z,1395.00
2024-01-15T10:58:11.913Z,1406.00
2024-01-15T10:59:11.858Z,1430.00
2024-01-15T11:00:11.943Z,1462.00
2024-01-15T11:01:12.001Z,1477.00
2024-01-15T11:02:14.463Z,1485.00
2024-01-15T11:03:12.230Z,1496.00
2024-01-15T11:04:12.335Z,1494.00
2024-01-15T11:05:12.211Z,1511.00
2024-01-15T11:06:12.441Z,1516.00
2024-01-15T11:07:12.332Z,1522.00
2024-01-15T11:08:12.428Z,1522.00
2024-01-15T11:09:12.443Z,1522.00
2024-01-15T11:10:12.375Z,1515.00
2024-01-15T11:11:12.380Z,1527.00
2024-01-15T11:12:12.496Z,1537.00
2024-01-15T11:13:12.393Z,1531.00
2024-01-15T11:14:12.912Z,1530.00
2024-01-15T11:15:12.501Z,1536.00
2024-01-15T11:16:12.492Z,1531.00
2024-01-15T11:17:12.528Z,1542.00
2024-01-15T11:18:12.666Z,1538.00
2024-01-15T11:19:14.027Z,1542.00
2024-01-15T11:20:12.569Z,1546.00
2024-01-15T11:21:12.663Z,1548.00
2024-01-15T11:22:12.608Z,1545.00
2024-01-15T11:23:13.462Z,1546.00
2024-01-15T11:24:12.936Z,1547.00
2024-01-15T11:25:12.725Z,1543.00
2024-01-15T11:26:12.727Z,1537.00
2024-01-15T11:27:12.827Z,1541.00
2024-01-15T11:28:12.772Z,1536.00
2024-01-15T11:29:12.825Z,1538.00
2024-01-15T11:30:12.994Z,1533.00
2024-01-15T11:31:12.942Z,1534.00
2024-01-15T11:32:13.004Z,1539.00
2024-01-15T11:33:13.144Z,1526.00
2024-01-15T11:34:13.184Z,1529.00
2024-01-15T11:35:13.266Z,1537.00
2024-01-15T11:36:13.296Z,1537.00
2024-01-15T11:37:13.292Z,1525.00
2024-01-15T11:38:13.362Z,1525.00
2024-01-15T11:39:13.460Z,1514.00
2024-01-15T11:40:13.467Z,1523.00
2024-01-15T11:41:13.517Z,1560.00
2024-01-15T11:42:13.661Z,1569.00
2024-01-15T11:43:13.586Z,1532.00
2024-01-15T11:44:13.586Z,1486.00
2024-01-15T11:45:13.686Z,1431.00
2024-01-15T11:46:13.665Z,1366.00
2024-01-15T11:47:16.007Z,1338.00
2024-01-15T11:48:14.289Z,1316.00
2024-01-15T11:49:13.983Z,1286.00
2024-01-15T11:50:13.722Z,1263.00
2024-01-15T11:51:13.729Z,1244.00
2024-01-15T11:52:13.683Z,1228.00
2024-01-15T11:53:13.662Z,1201.00
2024-01-15T11:54:13.766Z,1176.00
2024-01-15T11:55:13.722Z,1167.00
2024-01-15T11:56:13.700Z,1148.00
2024-01-15T11:57:13.799Z,1136.00
2024-01-15T11:58:13.690Z,1115.00
2024-01-15T11:59:13.691Z,1094.00
2024-01-15T12:00:13.828Z,1080.00
2024-01-15T12:01:13.876Z,1061.00
2024-01-15T12:02:13.697Z,1056.00
2024-01-15T12:03:13.768Z,1042.00
2024-01-15T12:04:14.778Z,1045.00
2024-01-15T12:05:13.775Z,1030.00
2024-01-15T12:06:13.732Z,1020.00
2024-01-15T12:07:13.861Z,1014.00
2024-01-15T12:08:13.770Z,1006.00
2024-01-15T12:09:13.805Z,1018.00
2024-01-15T12:10:15.338Z,1019.00
2024-01-15T12:11:13.724Z,1019.00
2024-01-15T12:12:13.778Z,1019.00
2024-01-15T12:13:13.754Z,1019.00
2024-01-15T12:14:13.936Z,1006.00
2024-01-15T12:15:13.747Z,1007.00
2024-01-15T12:16:13.768Z,1019.00
2024-01-15T12:17:13.843Z,1025.00
2024-01-15T12:18:13.907Z,1028.00
2024-01-15T12:19:13.866Z,1035.00
2024-01-15T12:20:13.801Z,1030.00
2024-01-15T12:21:13.749Z,1020.00
2024-01-15T12:22:13.788Z,976.00
2024-01-15T12:23:13.726Z,980.00
2024-01-15T12:24:13.770Z,974.00
2024-01-15T12:25:13.730Z,989.00